Time;durP1;ratioP1;P1;durP2;ratioP2;P2;SDS_P1;SDS_P2;PMS_P1;PMS_P2;Temp;Humidity;BMP_temperature;BMP_pressure;BME280_temperature;BME280_humidity;BME280_pressure;Samples;Min_cycle;Max_cycle;Signal;HPM_P1;HPM_P2
2021/03/29 00:00:19;;;;;;;10.52;4.38;;;;;;;9.30;75.29;102157.41;5023847;28;20128;-84
2021/03/29 00:02:47;;;;;;;12.57;4.50;;;;;;;9.37;75.39;102159.44;5019694;28;21158;-83
2021/03/29 00:05:14;;;;;;;14.57;5.22;;;;;;;9.37;75.42;102167.47;5025936;28;20552;-83
2021/03/29 00:07:42;;;;;;;10.85;4.45;;;;;;;9.34;75.55;102153.50;5024642;28;20038;-82
2021/03/29 00:10:09;;;;;;;11.07;4.20;;;;;;;9.36;74.84;102152.41;5008136;28;20040;-83
2021/03/29 00:12:37;;;;;;;10.05;4.63;;;;;;;9.32;74.96;102145.59;5016810;28;20103;-83
2021/03/29 00:15:06;;;;;;;9.40;4.53;;;;;;;9.31;75.55;102148.38;5020887;28;20041;-83
2021/03/29 00:17:32;;;;;;;12.65;4.35;;;;;;;9.28;75.33;102149.47;5016291;28;21715;-84
2021/03/29 00:19:58;;;;;;;13.32;4.93;;;;;;;9.27;75.59;102145.09;5019981;28;20041;-82
2021/03/29 00:22:24;;;;;;;10.88;4.72;;;;;;;9.24;75.42;102137.31;5016790;28;20502;-83
2021/03/29 00:24:50;;;;;;;10.85;5.07;;;;;;;9.24;75.71;102138.16;4992076;28;20077;-83
2021/03/29 00:27:17;;;;;;;16.33;4.80;;;;;;;9.26;75.14;102146.06;5024616;28;20047;-83
2021/03/29 00:29:43;;;;;;;13.25;5.43;;;;;;;9.29;75.51;102144.97;5024685;28;20069;-84
2021/03/29 00:32:10;;;;;;;16.75;5.13;;;;;;;9.24;75.70;102140.00;5023095;28;20068;-83
2021/03/29 00:34:37;;;;;;;12.57;5.53;;;;;;;9.23;75.87;102141.78;5023264;28;20053;-84
2021/03/29 00:37:03;;;;;;;15.45;5.60;;;;;;;9.24;76.11;102142.66;5018977;28;20139;-83
2021/03/29 00:39:31;;;;;;;12.30;5.22;;;;;;;9.24;76.01;102143.50;5023543;28;20504;-83
2021/03/29 00:41:57;;;;;;;12.10;4.40;;;;;;;9.25;75.55;102139.84;5026063;28;20433;-83
2021/03/29 00:44:23;;;;;;;12.27;5.60;;;;;;;9.29;75.69;102142.28;5039631;28;20193;-83
2021/03/29 00:46:49;;;;;;;20.30;7.03;;;;;;;9.31;76.30;102143.03;5019054;28;20042;-82
2021/03/29 00:49:15;;;;;;;10.73;5.07;;;;;;;9.29;75.96;102134.25;5040352;28;20060;-83
2021/03/29 00:51:42;;;;;;;15.27;6.32;;;;;;;9.29;76.29;102129.72;5035459;28;20386;-82
2021/03/29 00:54:08;;;;;;;11.77;4.65;;;;;;;9.27;75.89;102124.50;5018980;28;20041;-83
2021/03/29 00:56:36;;;;;;;12.52;5.47;;;;;;;9.30;75.97;102139.50;5006544;28;20417;-84
2021/03/29 00:59:03;;;;;;;17.27;6.10;;;;;;;9.26;76.27;102125.50;5014915;28;20498;-82
2021/03/29 01:01:35;;;;;;;15.90;6.20;;;;;;;9.26;76.29;102127.31;5023124;28;20053;-82
2021/03/29 01:04:03;;;;;;;16.00;6.22;;;;;;;9.25;76.11;102121.09;5013801;28;20103;-82
2021/03/29 01:06:32;;;;;;;17.38;5.20;;;;;;;9.25;76.13;102126.47;5038798;28;20514;-83
2021/03/29 01:09:06;;;;;;;16.75;5.65;;;;;;;9.29;75.61;102123.53;5008017;28;20132;-82
2021/03/29 01:11:34;;;;;;;14.02;5.80;;;;;;;9.31;76.03;102124.25;5030987;28;20253;-84
2021/03/29 01:14:05;;;;;;;17.52;6.65;;;;;;;9.35;75.61;102117.69;5015974;28;20269;-82
2021/03/29 01:16:42;;;;;;;18.38;6.30;;;;;;;9.33;75.56;102120.50;5018216;28;20075;-84
2021/03/29 01:19:33;;;;;;;12.80;5.18;;;;;;;9.30;75.73;102126.09;5036073;28;20038;-84
2021/03/29 01:22:05;;;;;;;15.57;5.97;;;;;;;9.32;75.84;102110.75;5040262;28;20049;-83
2021/03/29 01:24:35;;;;;;;15.18;6.00;;;;;;;9.32;75.84;102129.50;5027215;28;20537;-83
2021/03/29 01:27:00;;;;;;;11.48;5.35;;;;;;;9.27;75.84;102121.84;5030463;28;20460;-83
2021/03/29 01:29:30;;;;;;;15.95;6.32;;;;;;;9.30;75.90;102126.09;5008291;28;20045;-84
2021/03/29 01:31:59;;;;;;;14.00;5.15;;;;;;;9.25;75.84;102113.06;5040415;28;20041;-83
2021/03/29 01:34:27;;;;;;;14.70;6.07;;;;;;;9.24;75.77;102111.38;5020759;28;20357;-83
2021/03/29 01:36:53;;;;;;;16.60;5.93;;;;;;;9.23;75.53;102111.47;5024249;28;20046;-83
2021/03/29 01:39:20;;;;;;;14.00;5.95;;;;;;;9.22;75.75;102115.16;5024681;28;20040;-82
2021/03/29 01:41:46;;;;;;;17.58;6.32;;;;;;;9.16;76.07;102119.16;5041029;28;20600;-82
2021/03/29 01:44:12;;;;;;;16.38;5.93;;;;;;;9.17;75.95;102120.00;5020455;28;20125;-83
2021/03/29 01:46:38;;;;;;;10.70;5.00;;;;;;;9.15;76.02;102117.47;5019744;28;20136;-82
2021/03/29 01:49:04;;;;;;;14.07;5.63;;;;;;;9.16;75.82;102124.53;5043298;28;20128;-82
2021/03/29 01:51:30;;;;;;;14.23;5.38;;;;;;;9.13;75.76;102114.06;5018928;28;20140;-83
2021/03/29 01:53:56;;;;;;;15.55;5.90;;;;;;;9.11;75.66;102133.91;5022403;28;20543;-83
2021/03/29 01:56:21;;;;;;;14.05;5.57;;;;;;;9.08;75.80;102126.97;5028519;28;20137;-82
2021/03/29 01:58:47;;;;;;;13.82;6.07;;;;;;;9.08;75.54;102126.97;5028161;28;20052;-83
2021/03/29 02:01:13;;;;;;;12.50;5.57;;;;;;;9.04;75.61;102120.16;5020651;28;20084;-83
2021/03/29 02:03:40;;;;;;;14.18;5.95;;;;;;;9.04;75.32;102121.00;5036730;28;20048;-83
2021/03/29 02:06:07;;;;;;;14.88;5.53;;;;;;;9.06;75.90;102122.69;5032292;28;20049;-82
2021/03/29 02:08:35;;;;;;;16.38;6.05;;;;;;;9.02;75.65;102122.09;5037315;28;20041;-83
2021/03/29 02:11:01;;;;;;;15.20;5.50;;;;;;;9.01;75.49;102120.41;5024667;28;20077;-82
2021/03/29 02:13:31;;;;;;;16.33;6.30;;;;;;;8.98;75.13;102128.69;5041616;28;20103;-83
2021/03/29 02:16:03;;;;;;;14.00;5.90;;;;;;;9.00;75.33;102134.75;5038560;28;20132;-83
2021/03/29 02:18:32;;;;;;;14.75;5.60;;;;;;;8.98;75.21;102129.53;5041576;28;20033;-83
2021/03/29 02:21:05;;;;;;;11.98;6.25;;;;;;;8.99;75.21;102135.72;5011104;28;20049;-83
2021/03/29 02:23:31;;;;;;;13.18;5.28;;;;;;;9.02;74.78;102127.44;5026692;28;20052;-83
2021/03/29 02:25:59;;;;;;;12.18;5.68;;;;;;;9.07;74.50;102117.22;5044988;28;20057;-81
2021/03/29 02:28:25;;;;;;;10.65;5.35;;;;;;;9.10;73.77;102133.06;5027453;28;20048;-83
2021/03/29 02:30:52;;;;;;;16.60;5.70;;;;;;;9.12;74.50;102133.78;5044254;28;20038;-82
2021/03/29 02:33:19;;;;;;;12.57;5.90;;;;;;;9.12;74.24;102128.44;5021214;28;20049;-83
2021/03/29 02:35:46;;;;;;;15.45;5.70;;;;;;;9.09;73.76;102128.69;5028854;28;20049;-84
2021/03/29 02:38:16;;;;;;;12.00;5.35;;;;;;;9.06;73.62;102112.81;5040589;28;20124;-83
2021/03/29 02:40:42;;;;;;;12.52;5.30;;;;;;;9.06;74.11;102128.91;5043210;28;20052;-82
2021/03/29 02:43:10;;;;;;;16.42;6.10;;;;;;;9.05;74.35;102132.56;5025728;28;20052;-82
2021/03/29 02:45:39;;;;;;;9.68;5.57;;;;;;;9.05;74.55;102127.19;5020865;28;20042;-83
2021/03/29 02:48:09;;;;;;;;;;;;;;;9.00;73.43;102116.00;5023926;28;20053;-84
2021/03/29 02:50:37;;;;;;;14.13;5.90;;;;;;;8.91;73.92;102114.06;5029713;28;19925;-83
2021/03/29 02:53:07;;;;;;;14.27;4.45;;;;;;;8.91;73.70;102124.75;5022001;28;20413;-81
2021/03/29 02:55:33;;;;;;;14.25;5.50;;;;;;;8.91;74.20;102114.06;5023074;28;20075;-82
2021/03/29 02:58:01;;;;;;;12.23;5.18;;;;;;;8.90;73.34;102107.84;5017412;28;20433;-82
2021/03/29 03:00:27;;;;;;;12.50;5.15;;;;;;;8.91;74.30;102114.91;5022479;28;20062;-82
2021/03/29 03:02:59;;;;;;;14.02;4.20;;;;;;;8.86;73.68;102105.53;5021895;28;20052;-83
2021/03/29 03:05:28;;;;;;;12.20;4.90;;;;;;;8.85;73.92;102110.03;5018986;28;20541;-82
2021/03/29 03:07:53;;;;;;;15.25;5.18;;;;;;;8.83;73.12;102109.28;5022186;28;20038;-83
2021/03/29 03:10:19;;;;;;;11.57;4.30;;;;;;;8.85;73.29;102115.38;5023988;28;20052;-82
2021/03/29 03:12:47;;;;;;;13.82;5.03;;;;;;;8.85;73.49;102118.06;5024866;28;20049;-82
2021/03/29 03:15:21;;;;;;;14.48;5.47;;;;;;;8.84;73.38;102120.88;5022591;28;20069;-84
2021/03/29 03:17:47;;;;;;;13.93;5.25;;;;;;;8.80;73.88;102118.44;5027837;28;20437;-82
2021/03/29 03:20:15;;;;;;;9.07;4.38;;;;;;;8.77;74.18;102118.66;5044083;28;20042;-82
2021/03/29 03:23:05;;;;;;;13.05;6.00;;;;;;;8.78;74.16;102107.00;5025352;28;20033;-82
2021/03/29 03:25:35;;;;;;;11.02;4.60;;;;;;;8.80;73.66;102112.22;4994628;28;20103;-82
2021/03/29 03:28:03;;;;;;;13.82;5.45;;;;;;;8.81;74.22;102111.25;5044670;28;20041;-83
2021/03/29 03:30:32;;;;;;;10.77;5.50;;;;;;;8.80;73.72;102112.22;5023272;28;20418;-83
2021/03/29 03:32:58;;;;;;;13.88;4.38;;;;;;;8.79;72.80;102110.53;5024888;28;20041;-84
2021/03/29 03:35:27;;;;;;;13.45;5.30;;;;;;;8.80;73.92;102112.22;5021374;28;20038;-82
2021/03/29 03:38:14;;;;;;;11.95;4.85;;;;;;;8.76;74.14;102114.28;5020491;28;20128;-82
2021/03/29 03:40:43;;;;;;;11.10;4.40;;;;;;;8.75;73.60;102107.25;5008145;28;20052;-82
2021/03/29 03:43:10;;;;;;;11.40;4.97;;;;;;;8.79;73.11;102099.81;5026469;28;20038;-83
2021/03/29 03:45:42;;;;;;;12.23;4.65;;;;;;;8.81;73.93;102104.06;5044498;28;20291;-83
2021/03/29 03:48:09;;;;;;;11.75;4.15;;;;;;;8.86;72.87;102108.19;5020613;28;20038;-82
2021/03/29 03:50:36;;;;;;;10.23;4.40;;;;;;;8.89;73.41;102100.81;5039321;28;20064;-83
2021/03/29 03:53:03;;;;;;;11.35;4.50;;;;;;;8.95;73.40;102107.50;5019912;28;20038;-84
2021/03/29 03:55:29;;;;;;;13.73;5.28;;;;;;;9.00;73.16;102108.81;5006120;28;20056;-83
2021/03/29 03:57:55;;;;;;;13.77;5.22;;;;;;;9.03;71.90;102113.94;5022941;28;20127;-83
2021/03/29 04:00:21;;;;;;;8.98;3.83;;;;;;;9.05;71.92;102105.78;5020630;28;20046;-82
2021/03/29 04:02:49;;;;;;;11.45;3.95;;;;;;;9.08;72.12;102105.53;5015955;28;20099;-82
2021/03/29 04:05:16;;;;;;;9.05;3.80;;;;;;;9.13;71.71;102102.50;5015127;28;20042;-82
2021/03/29 04:07:43;;;;;;;13.90;4.75;;;;;;;9.14;71.41;102104.19;5014555;28;20049;-84
2021/03/29 04:10:19;;;;;;;8.85;3.42;;;;;;;9.16;71.58;102097.75;5023235;28;20133;-82
2021/03/29 04:12:51;;;;;;;8.45;3.25;;;;;;;9.16;72.31;102110.28;5018716;28;20205;-84
2021/03/29 04:15:16;;;;;;;9.68;3.50;;;;;;;9.15;72.21;102106.75;5023102;28;20038;-84
2021/03/29 04:17:42;;;;;;;10.50;3.63;;;;;;;9.14;71.89;102098.84;5006817;28;20352;-81
2021/03/29 04:20:09;;;;;;;13.05;4.30;;;;;;;9.16;71.56;102111.13;5031500;28;20502;-82
2021/03/29 04:22:35;;;;;;;13.20;3.92;;;;;;;9.19;71.53;102105.53;5032817;28;20072;-84
2021/03/29 04:25:01;;;;;;;9.68;3.92;;;;;;;9.20;71.93;102098.34;5017478;28;20115;-83
2021/03/29 04:27:27;;;;;;;9.75;3.72;;;;;;;9.20;71.91;102109.91;5015990;28;20065;-83
2021/03/29 04:29:52;;;;;;;11.50;3.53;;;;;;;9.19;71.45;102105.53;5020524;28;20380;-82
2021/03/29 04:32:18;;;;;;;11.45;4.50;;;;;;;9.17;71.92;102114.66;5017568;28;20041;-82
2021/03/29 04:34:43;;;;;;;13.57;3.95;;;;;;;9.20;71.43;102117.09;5024580;28;20042;-82
2021/03/29 04:37:08;;;;;;;12.85;3.70;;;;;;;9.20;71.39;102125.97;5023838;28;20589;-83
2021/03/29 04:39:34;;;;;;;10.18;3.92;;;;;;;9.24;71.99;102130.13;5006469;28;20339;-83
2021/03/29 04:41:59;;;;;;;12.07;3.60;;;;;;;9.21;71.58;102127.69;5009596;28;20069;-83
2021/03/29 04:44:25;;;;;;;12.63;3.40;;;;;;;9.18;71.63;102117.22;5010989;28;20436;-82
2021/03/29 04:46:50;;;;;;;11.20;4.05;;;;;;;9.20;71.34;102130.47;5036511;28;20548;-84
2021/03/29 04:49:16;;;;;;;8.00;3.83;;;;;;;9.16;72.66;102118.31;5001942;28;20441;-82
2021/03/29 04:51:41;;;;;;;10.43;3.13;;;;;;;9.12;71.96;102125.75;5019662;28;20045;-85
2021/03/29 04:54:07;;;;;;;11.23;4.45;;;;;;;9.09;72.65;102125.13;5018152;28;20092;-82
2021/03/29 04:56:35;;;;;;;11.63;4.15;;;;;;;9.06;72.17;102134.25;5040173;28;20456;-83
2021/03/29 04:59:00;;;;;;;12.25;3.45;;;;;;;9.04;72.83;102136.22;5024528;28;20050;-82
2021/03/29 05:01:26;;;;;;;12.20;2.95;;;;;;;9.02;72.65;102132.81;5027172;28;20413;-82
2021/03/29 05:03:51;;;;;;;13.98;4.10;;;;;;;9.02;73.02;102130.13;5029058;28;20045;-82
2021/03/29 05:06:17;;;;;;;9.10;3.42;;;;;;;9.00;72.55;102134.75;5027603;28;20049;-82
2021/03/29 05:08:42;;;;;;;11.40;4.20;;;;;;;8.94;73.70;102146.78;5009423;28;20044;-82
2021/03/29 05:11:09;;;;;;;11.80;4.68;;;;;;;8.94;73.60;102140.59;5019916;28;20732;-82
2021/03/29 05:13:35;;;;;;;9.20;4.15;;;;;;;8.92;74.06;102137.16;5028111;28;20548;-83
2021/03/29 05:16:00;;;;;;;12.40;4.80;;;;;;;8.89;74.16;102132.06;5041782;28;20045;-83
2021/03/29 05:18:25;;;;;;;14.02;4.07;;;;;;;8.87;73.63;102129.50;5024279;28;20673;-85
2021/03/29 05:20:51;;;;;;;10.10;4.15;;;;;;;8.84;74.63;102128.91;5035617;28;20041;-82
2021/03/29 05:23:16;;;;;;;9.77;3.80;;;;;;;8.86;74.60;102134.97;5024696;28;20616;-84
2021/03/29 05:25:42;;;;;;;11.20;4.00;;;;;;;8.81;74.42;102144.22;5041265;28;20049;-82
2021/03/29 05:28:07;;;;;;;9.38;3.80;;;;;;;8.85;74.64;102141.31;5042172;28;20517;-81
2021/03/29 05:30:35;;;;;;;12.00;4.28;;;;;;;8.81;74.67;102141.56;5038263;28;20049;-81
2021/03/29 05:33:04;;;;;;;9.32;4.05;;;;;;;8.84;74.70;102139.63;4997211;28;20048;-82
2021/03/29 05:35:29;;;;;;;10.68;4.18;;;;;;;8.81;75.09;102152.25;5027323;28;29532;-83
2021/03/29 05:37:55;;;;;;;10.30;3.83;;;;;;;8.78;75.00;102151.66;5043638;28;20045;-83
2021/03/29 05:40:21;;;;;;;13.35;4.20;;;;;;;8.80;74.86;102150.56;5043102;28;20140;-82
2021/03/29 05:42:47;;;;;;;9.95;3.85;;;;;;;8.79;74.85;102170.25;5026799;28;20045;-84
2021/03/29 05:45:14;;;;;;;14.93;4.88;;;;;;;8.81;75.00;102157.63;5009484;28;20092;-82
2021/03/29 05:47:42;;;;;;;11.35;3.55;;;;;;;8.81;74.80;102159.44;5028435;28;20045;-82
2021/03/29 05:50:15;;;;;;;12.98;4.07;;;;;;;8.85;74.96;102168.06;5028843;28;20100;-82
2021/03/29 05:52:43;;;;;;;9.88;4.00;;;;;;;8.85;74.82;102165.41;5028429;28;20041;-81
2021/03/29 05:55:22;;;;;;;12.20;4.78;;;;;;;8.86;75.03;102169.78;5027809;28;20045;-82
2021/03/29 06:00:39;;;;;;;11.55;4.70;;;;;;;8.88;74.84;102170.50;5039711;28;20042;-82
2021/03/29 06:03:24;;;;;;;11.60;4.20;;;;;;;8.87;74.86;102172.34;5037598;28;20100;-82
2021/03/29 06:05:53;;;;;;;10.00;4.15;;;;;;;8.87;75.06;102183.06;5016652;28;20046;-82
2021/03/29 06:08:19;;;;;;;10.55;4.18;;;;;;;8.90;75.16;102179.28;5007497;28;20093;-82
2021/03/29 06:10:45;;;;;;;11.18;3.97;;;;;;;8.94;75.31;102178.06;5027488;28;20087;-81
2021/03/29 06:13:20;;;;;;;8.88;3.45;;;;;;;8.95;74.68;102179.78;5028624;28;20241;-82
2021/03/29 06:15:46;;;;;;;11.95;4.10;;;;;;;8.95;75.07;102179.78;5013492;28;20437;-81
2021/03/29 06:18:16;;;;;;;12.40;4.93;;;;;;;8.96;75.12;102178.81;5026789;28;20045;-82
2021/03/29 06:21:04;;;;;;;12.07;3.67;;;;;;;8.98;74.44;102190.25;5025628;28;20056;-82
2021/03/29 06:23:32;;;;;;;12.17;4.63;;;;;;;8.98;75.25;102190.25;5022306;28;20057;-81
2021/03/29 06:26:26;;;;;;;14.73;4.38;;;;;;;8.98;75.27;102200.97;5020316;28;20045;-81
2021/03/29 06:28:52;;;;;;;11.43;4.15;;;;;;;9.00;75.30;102193.66;4997042;28;21984;-82
2021/03/29 06:31:24;;;;;;;13.15;5.13;;;;;;;9.02;74.95;102189.03;5019011;28;20064;-82
2021/03/29 06:33:51;;;;;;;11.65;4.88;;;;;;;9.03;75.18;102201.44;5035498;28;20053;-82
2021/03/29 06:36:35;;;;;;;8.50;4.20;;;;;;;9.02;75.57;102197.06;5020482;28;20045;-82
2021/03/29 06:39:17;;;;;;;12.60;3.60;;;;;;;9.01;75.19;102196.22;5016734;28;20045;-82
2021/03/29 06:42:01;;;;;;;15.98;4.47;;;;;;;9.03;75.06;102201.44;4984604;28;20037;-82
2021/03/29 06:44:32;;;;;;;12.35;3.92;;;;;;;9.04;75.61;102213.88;5023290;28;20042;-82
2021/03/29 06:47:13;;;;;;;9.70;3.92;;;;;;;9.06;75.14;102187.81;5026410;28;20057;-82
2021/03/29 06:49:45;;;;;;;10.77;3.67;;;;;;;9.11;75.59;102209.72;5026621;28;20469;-82
2021/03/29 06:52:29;;;;;;;8.93;3.63;;;;;;;9.19;75.04;102209.97;5018820;28;20135;-82
2021/03/29 06:55:15;;;;;;;11.57;3.95;;;;;;;9.30;74.78;102202.94;5022412;28;20127;-83
2021/03/29 06:57:40;;;;;;;9.05;3.67;;;;;;;9.39;74.90;102213.75;5023408;28;20045;-82
2021/03/29 07:00:11;;;;;;;9.05;3.90;;;;;;;9.49;74.12;102214.75;5024429;28;20048;-82
2021/03/29 07:02:45;;;;;;;9.88;3.63;;;;;;;9.59;73.88;102222.91;5022670;28;20054;-82
2021/03/29 07:05:11;;;;;;;9.57;3.15;;;;;;;9.67;73.99;102225.81;5017306;28;20033;-82
2021/03/29 07:07:39;;;;;;;9.60;4.10;;;;;;;9.77;73.89;102219.72;5027867;28;20091;-81
2021/03/29 07:10:07;;;;;;;12.02;3.97;;;;;;;9.90;73.33;102226.63;5022266;28;20104;-83
2021/03/29 07:12:37;;;;;;;9.82;3.90;;;;;;;10.07;73.58;102227.06;5021540;28;20053;-81
2021/03/29 07:15:06;;;;;;;8.80;4.20;;;;;;;10.17;73.16;102226.19;5028125;28;20124;-83
2021/03/29 07:17:35;;;;;;;5.72;3.38;;;;;;;10.25;72.82;102225.56;5025121;28;20045;-82
2021/03/29 07:20:01;;;;;;;10.55;3.60;;;;;;;10.36;72.12;102241.66;5019934;28;20038;-82
2021/03/29 07:22:27;;;;;;;10.80;3.83;;;;;;;10.41;72.20;102241.25;5017924;28;20048;-82
2021/03/29 07:25:00;;;;;;;11.05;4.03;;;;;;;10.43;72.25;102241.16;5025656;28;20096;-83
2021/03/29 07:27:28;;;;;;;13.02;4.07;;;;;;;10.42;72.15;102240.28;5025639;28;20045;-81
2021/03/29 07:29:53;;;;;;;8.00;3.58;;;;;;;10.47;72.00;102243.47;5026722;28;20041;-81
2021/03/29 07:32:30;;;;;;;10.07;3.30;;;;;;;10.53;72.47;102251.00;5024584;28;20106;-82
2021/03/29 07:34:56;;;;;;;9.45;3.83;;;;;;;10.59;72.24;102255.84;5019467;28;20038;-81
2021/03/29 07:37:41;;;;;;;9.23;2.92;;;;;;;10.63;71.85;102255.59;5023145;28;20037;-83
2021/03/29 07:40:15;;;;;;;13.30;4.18;;;;;;;10.70;72.07;102243.31;5027179;28;20033;-81
2021/03/29 07:42:42;;;;;;;10.95;4.15;;;;;;;10.77;72.25;102241.84;5022838;28;20053;-83
2021/03/29 07:45:11;;;;;;;10.07;3.65;;;;;;;10.84;71.26;102240.31;5017216;28;20053;-82
2021/03/29 07:47:49;;;;;;;10.10;4.45;;;;;;;10.94;71.46;102243.94;5022217;28;20498;-81
2021/03/29 07:50:24;;;;;;;10.00;3.40;;;;;;;10.99;70.97;102251.59;5015483;28;20050;-81
2021/03/29 07:52:52;;;;;;;9.43;3.60;;;;;;;11.00;70.69;102258.69;5020289;28;20049;-81
2021/03/29 07:55:30;;;;;;;8.20;3.72;;;;;;;11.06;70.81;102256.31;5023321;28;20163;-83
2021/03/29 07:57:55;;;;;;;11.00;3.95;;;;;;;11.13;70.29;102258.47;5022584;28;20049;-82
2021/03/29 08:00:24;;;;;;;8.15;3.50;;;;;;;11.17;70.53;102247.34;5023532;28;20045;-82
2021/03/29 08:02:52;;;;;;;10.45;3.33;;;;;;;11.15;70.07;102262.72;5026414;28;20132;-84
2021/03/29 08:05:39;;;;;;;9.13;3.60;;;;;;;11.19;70.13;102258.81;5022339;28;20430;-82
2021/03/29 08:08:23;;;;;;;7.82;3.42;;;;;;;11.27;70.53;102255.44;5031847;28;20041;-82
2021/03/29 08:11:12;;;;;;;13.02;4.20;;;;;;;11.34;70.03;102263.84;5019822;28;20483;-83
2021/03/29 08:13:39;;;;;;;;;;;;;;;11.30;68.95;102266.75;5022750;28;20089;-82
2021/03/29 08:16:07;;;;;;;7.55;3.78;;;;;;;11.27;70.04;102260.81;5026078;28;19917;-81
2021/03/29 08:19:07;;;;;;;11.97;4.13;;;;;;;11.43;69.99;102269.25;5005624;28;20438;-81
2021/03/29 08:21:41;;;;;;;;;;;;;;;11.50;69.29;102275.78;5037935;28;20241;-83
2021/03/29 08:24:14;;;;;;;10.85;4.82;;;;;;;11.56;69.16;102277.09;5018572;28;19999;-83
2021/03/29 08:26:40;;;;;;;9.85;3.63;;;;;;;11.66;68.58;102282.53;5036806;28;20069;-82
2021/03/29 08:29:16;;;;;;;9.73;3.97;;;;;;;11.70;69.17;102290.16;5026983;28;20053;-81
2021/03/29 08:32:14;;;;;;;7.95;4.03;;;;;;;11.75;67.79;102277.16;5028156;28;20044;-82
2021/03/29 08:34:52;;;;;;;11.27;3.80;;;;;;;11.89;67.34;102307.41;5011201;28;20049;-82
2021/03/29 08:37:21;;;;;;;6.80;2.92;;;;;;;11.88;66.71;102276.97;5027148;28;20061;-82
2021/03/29 08:39:49;;;;;;;8.85;3.45;;;;;;;11.88;66.68;102279.66;5027515;28;20053;-84
2021/03/29 08:42:17;;;;;;;7.47;3.22;;;;;;;11.94;65.84;102272.91;5026802;28;20151;-83
2021/03/29 08:44:44;;;;;;;9.10;3.45;;;;;;;11.99;66.90;102267.09;5026420;28;20133;-82
2021/03/29 08:47:12;;;;;;;12.13;3.40;;;;;;;12.13;65.91;102280.16;5022975;28;20037;-82
2021/03/29 08:49:38;;;;;;;9.93;3.63;;;;;;;12.18;66.13;102285.97;5031306;28;20099;-82
2021/03/29 08:52:04;;;;;;;6.72;3.17;;;;;;;12.28;65.92;102288.66;5048921;28;20091;-83
2021/03/29 08:54:29;;;;;;;11.43;3.53;;;;;;;12.28;64.63;102294.91;5033494;28;20046;-83
2021/03/29 08:57:04;;;;;;;9.95;3.20;;;;;;;12.24;64.16;102282.72;5027443;28;20041;-83
2021/03/29 08:59:30;;;;;;;12.25;3.70;;;;;;;12.32;64.86;102290.97;5038781;28;20207;-82
2021/03/29 09:01:56;;;;;;;10.32;3.63;;;;;;;12.45;65.45;102279.91;5024479;28;21133;-83
2021/03/29 09:04:22;;;;;;;8.75;3.40;;;;;;;12.58;64.37;102291.25;5048303;28;20489;-83
2021/03/29 09:06:55;;;;;;;10.52;3.35;;;;;;;12.65;64.24;102302.31;5049788;28;20067;-83
2021/03/29 09:09:23;;;;;;;10.27;3.63;;;;;;;12.76;64.15;102307.56;5031512;28;20046;-81
2021/03/29 09:11:52;;;;;;;8.80;3.58;;;;;;;12.71;62.94;102300.91;5030434;28;20046;-83
2021/03/29 09:14:19;;;;;;;;;;;;;;;12.71;63.02;102311.69;5024812;28;20053;-81
2021/03/29 09:16:45;;;;;;;9.52;3.50;;;;;;;12.77;63.31;102300.34;5029313;28;19982;-82
2021/03/29 09:19:18;;;;;;;9.95;3.50;;;;;;;12.77;62.64;102321.88;5026502;28;20092;-83
2021/03/29 09:21:51;;;;;;;6.88;3.33;;;;;;;12.92;63.27;102298.06;5022302;28;20037;-81
2021/03/29 09:24:24;;;;;;;9.85;3.33;;;;;;;13.09;61.87;102316.22;5025429;28;20059;-83
2021/03/29 09:26:59;;;;;;;8.45;3.38;;;;;;;13.17;61.37;102313.63;5025528;28;20049;-82
2021/03/29 09:29:38;;;;;;;8.77;3.30;;;;;;;13.19;62.04;102324.28;5038463;28;20053;-82
2021/03/29 09:32:16;;;;;;;11.85;3.55;;;;;;;13.14;60.81;102323.84;5028920;28;20433;-82
2021/03/29 09:34:45;;;;;;;7.88;2.80;;;;;;;13.18;59.83;102328.81;5020800;28;20065;-82
2021/03/29 09:37:17;;;;;;;9.13;3.90;;;;;;;13.19;59.54;102322.44;5038102;28;20049;-81
2021/03/29 09:39:42;;;;;;;8.23;3.25;;;;;;;13.24;59.79;102347.13;5024748;28;20427;-82
2021/03/29 09:42:07;;;;;;;14.48;3.83;;;;;;;13.31;59.75;102326.69;5034368;28;20069;-82
2021/03/29 09:44:33;;;;;;;10.77;3.63;;;;;;;13.35;60.16;102329.97;5020585;28;20116;-82
2021/03/29 09:46:59;;;;;;;7.57;3.58;;;;;;;13.38;59.20;102332.38;5009963;28;20037;-83
2021/03/29 09:49:26;;;;;;;9.15;3.45;;;;;;;13.43;59.78;102335.47;5025391;28;20164;-82
2021/03/29 09:52:05;;;;;;;10.88;3.47;;;;;;;13.44;58.47;102337.19;5025788;28;20099;-82
2021/03/29 09:54:32;;;;;;;8.93;3.97;;;;;;;13.58;58.59;102335.88;5019725;28;20041;-81
2021/03/29 09:57:11;;;;;;;9.73;3.60;;;;;;;13.53;55.97;102324.66;5026406;28;20134;-83
2021/03/29 09:59:39;;;;;;;7.80;3.58;;;;;;;13.53;58.06;102330.91;5027442;28;20055;-82
2021/03/29 10:02:22;;;;;;;11.75;4.28;;;;;;;13.66;59.24;102325.16;5044052;28;20040;-82
2021/03/29 10:04:59;;;;;;;10.35;3.58;;;;;;;13.74;57.65;102333.38;5023975;28;20061;-82
2021/03/29 10:07:24;;;;;;;12.02;4.70;;;;;;;13.79;57.93;102342.91;5037412;28;20038;-82
2021/03/29 10:09:58;;;;;;;11.10;4.00;;;;;;;13.93;57.02;102350.53;5020792;28;20052;-82
2021/03/29 10:12:28;;;;;;;8.77;3.50;;;;;;;13.97;57.20;102357.31;5034862;28;20026;-82
2021/03/29 10:15:12;;;;;;;10.20;4.22;;;;;;;14.06;56.23;102342.06;5022671;28;20069;-83
2021/03/29 10:17:38;;;;;;;11.65;3.53;;;;;;;14.09;56.85;102355.25;5026131;28;20049;-83
2021/03/29 10:20:17;;;;;;;10.32;4.15;;;;;;;14.13;55.84;102343.19;5019951;28;20049;-83
2021/03/29 10:22:42;;;;;;;9.73;3.50;;;;;;;14.13;55.46;102359.38;5022705;28;20050;-83
2021/03/29 10:25:26;;;;;;;8.45;3.55;;;;;;;14.11;55.56;102356.81;5023778;28;20053;-83
2021/03/29 10:27:56;;;;;;;8.15;3.63;;;;;;;14.25;54.21;102355.47;5005968;28;20053;-83
2021/03/29 10:30:25;;;;;;;11.38;3.35;;;;;;;14.33;55.58;102352.03;5041264;28;20038;-82
2021/03/29 10:32:55;;;;;;;8.63;3.83;;;;;;;14.41;54.22;102352.97;5027100;28;20042;-83
2021/03/29 10:35:23;;;;;;;7.63;3.15;;;;;;;14.47;53.39;102329.88;5021514;28;20038;-82
2021/03/29 10:37:50;;;;;;;9.35;4.15;;;;;;;14.68;54.75;102358.50;5008676;28;20046;-84
2021/03/29 10:40:16;;;;;;;8.25;4.03;;;;;;;14.88;53.73;102381.69;5025280;28;20124;-83
2021/03/29 10:42:42;;;;;;;8.15;4.13;;;;;;;14.81;53.36;102361.66;5037682;28;20050;-81
2021/03/29 10:45:11;;;;;;;9.40;3.17;;;;;;;14.81;51.54;102354.41;5017199;28;20046;-82
2021/03/29 10:47:38;;;;;;;8.57;3.67;;;;;;;15.01;53.28;102355.09;5037836;28;20141;-82
2021/03/29 10:50:05;;;;;;;7.38;3.40;;;;;;;15.02;51.62;102351.41;5015351;28;20038;-84
2021/03/29 10:52:30;;;;;;;6.55;3.17;;;;;;;15.00;53.21;102361.53;5008111;28;20449;-83
2021/03/29 10:54:56;;;;;;;9.85;4.07;;;;;;;15.11;51.62;102361.28;5016302;28;20056;-82
2021/03/29 10:57:21;;;;;;;10.32;3.38;;;;;;;15.19;51.67;102354.22;5022347;28;20098;-85
2021/03/29 10:59:47;;;;;;;7.43;3.13;;;;;;;15.22;49.44;102348.50;5036955;28;20141;-83
2021/03/29 11:02:13;;;;;;;7.15;3.25;;;;;;;15.30;50.53;102359.38;5023895;28;20119;-83
2021/03/29 11:04:38;;;;;;;9.73;3.90;;;;;;;15.34;49.63;102339.16;5024677;28;20099;-84
2021/03/29 11:07:04;;;;;;;8.85;3.60;;;;;;;15.31;50.95;102353.00;5025974;28;20427;-83
2021/03/29 11:09:29;;;;;;;7.07;3.40;;;;;;;15.39;50.43;102366.56;5040998;28;20561;-82
2021/03/29 11:11:55;;;;;;;6.93;3.03;;;;;;;15.47;49.17;102350.38;5022945;28;20125;-83
2021/03/29 11:14:21;;;;;;;7.88;3.35;;;;;;;15.62;49.62;102355.22;5025109;28;20048;-82
2021/03/29 11:16:50;;;;;;;10.35;3.85;;;;;;;15.69;50.88;102349.03;5042483;28;20386;-83
2021/03/29 11:19:15;;;;;;;7.53;3.50;;;;;;;15.79;49.72;102348.91;5015863;28;20079;-82
2021/03/29 11:21:41;;;;;;;9.02;3.20;;;;;;;15.86;49.00;102359.97;5027624;28;20034;-81
2021/03/29 11:24:07;;;;;;;8.95;4.05;;;;;;;15.94;51.03;102358.16;5025804;28;20045;-84
2021/03/29 11:26:32;;;;;;;8.98;3.70;;;;;;;16.06;49.08;102356.00;5035927;28;20464;-82
2021/03/29 11:28:57;;;;;;;9.63;4.15;;;;;;;16.13;50.43;102353.50;5025086;28;20038;-82
2021/03/29 11:31:24;;;;;;;8.63;3.53;;;;;;;16.30;47.85;102339.00;5024397;28;20041;-84
2021/03/29 11:33:53;;;;;;;8.77;4.00;;;;;;;16.40;48.93;102342.44;5006396;28;20056;-83
2021/03/29 11:36:20;;;;;;;6.60;3.35;;;;;;;16.38;50.12;102336.31;5015384;28;20042;-83
2021/03/29 11:38:46;;;;;;;7.65;3.00;;;;;;;16.44;48.34;102353.78;5000950;28;20514;-82